Hlavní strana
METAR-TAF:

METAR-TAF

Letiště :

Franklin County Airport

Louisburg, Severní Karolína, Spojené státy americké

zeměpisná šířka: 36-01-24N, zeměpisná délka: 078-19-49W, výška: 113 m

Aktuální stav počasí

Zpráva byla vytvořena před 18 minutami, v 10:35 UTC
Severní vítr 3 kt
Teplota 3°C
Vlhkost vzduchu 93%
Tlak 1024 hPa
Viditelnost: 16.1 km
Zataženo ve výšce 700 ft

METAR: KLHZ 241035Z AUTO 01003KT 10SM OVC007 03/02 A3023 RMK AO2

Čas: 05:53 (10:53 UTC)


TAF: chybějící

Stav a předpovědi počasí z více než 4 000 letišť (zprávy METAR a TAF).

Červené a žluté tečky na mapě představují dostupné meteorologické stanice.

Když kurzor umístíte na tečku, zobrazí se název stanice.

Pak kliknutím zobrazíte stav a předpověď počasí.

Chcete-li změnit mapu, kliknutím na zelené tlačítko se znaménkem +mapu přiblížíte, kliknutím na zelené tlačítko se znaménkem – mapu oddálíte a kliknutím na zelené šipky přejdete na sousední mapy.


METAR-TAF: